Time;durP1;ratioP1;P1;durP2;ratioP2;P2;SDS_P1;SDS_P2;PMS_P1;PMS_P2;Temp;Humidity;BMP_temperature;BMP_pressure;BME280_temperature;BME280_humidity;BME280_pressure;Samples;Min_cycle;Max_cycle;Signal;HPM_P1;HPM_P2
2023/04/25 00:00:01;;;;;;;13.10;4.60;;;;;;;5.81;100.00;100832.34;1036006;28;20303;-81
2023/04/25 00:00:42;;;;;;;15.00;5.10;;;;;;;5.82;100.00;100841.91;1035415;28;20292;-81
2023/04/25 00:01:14;;;;;;;16.85;6.07;;;;;;;5.88;100.00;100835.88;1041474;28;20300;-81
2023/04/25 00:01:46;;;;;;;25.48;4.82;;;;;;;5.83;100.00;100840.06;1035803;28;20319;-81
2023/04/25 00:02:18;;;;;;;24.20;6.97;;;;;;;5.82;100.00;100844.53;1035581;28;20379;-81
2023/04/25 00:02:49;;;;;;;12.10;5.10;;;;;;;5.81;100.00;100837.63;1031843;28;20700;-81
2023/04/25 00:03:22;;;;;;;18.90;4.70;;;;;;;5.79;100.00;100834.34;1035867;28;20806;-80
2023/04/25 00:03:54;;;;;;;14.30;5.13;;;;;;;5.75;100.00;100837.50;1044497;28;20295;-81
2023/04/25 00:04:27;;;;;;;19.67;6.05;;;;;;;5.69;100.00;100846.19;1042101;28;20315;-81
2023/04/25 00:04:59;;;;;;;16.05;6.35;;;;;;;5.73;100.00;100844.81;1036049;28;20308;-81
2023/04/25 00:05:31;;;;;;;15.48;4.93;;;;;;;5.79;100.00;100850.19;1035905;28;20312;-81
2023/04/25 00:06:03;;;;;;;21.42;4.93;;;;;;;5.75;100.00;100848.09;1040194;28;20797;-81
2023/04/25 00:06:36;;;;;;;12.88;5.18;;;;;;;5.66;100.00;100843.91;1040100;28;20292;-81
2023/04/25 00:07:07;;;;;;;21.83;6.53;;;;;;;5.72;100.00;100844.00;1039926;28;20300;-81
2023/04/25 00:07:39;;;;;;;12.35;4.55;;;;;;;5.72;100.00;100845.81;1035347;28;20392;-81
2023/04/25 00:08:11;;;;;;;14.77;4.38;;;;;;;5.75;100.00;100842.81;1031962;28;20297;-81
2023/04/25 00:08:43;;;;;;;14.02;4.32;;;;;;;5.65;100.00;100837.81;1024010;28;20294;-81
2023/04/25 00:09:15;;;;;;;13.43;3.85;;;;;;;5.69;100.00;100849.66;1027925;28;20302;-81
2023/04/25 00:09:46;;;;;;;12.18;4.20;;;;;;;5.62;100.00;100846.09;1031446;28;20297;-81
2023/04/25 00:10:19;;;;;;;20.25;5.35;;;;;;;5.59;100.00;100843.84;1030865;28;20301;-81
2023/04/25 00:10:51;;;;;;;18.70;4.80;;;;;;;5.53;100.00;100839.28;1031249;28;20313;-81
2023/04/25 00:11:23;;;;;;;15.63;5.43;;;;;;;5.41;100.00;100843.38;1033285;28;20298;-81
2023/04/25 00:11:54;;;;;;;18.25;5.38;;;;;;;5.28;100.00;100846.66;1040018;28;20296;-81
2023/04/25 00:12:28;;;;;;;24.67;4.72;;;;;;;5.16;100.00;100845.47;1038854;28;20315;-81
2023/04/25 00:13:02;;;;;;;9.43;3.72;;;;;;;5.35;100.00;100844.13;1036260;28;20303;-81
2023/04/25 00:13:33;;;;;;;14.55;4.97;;;;;;;5.14;100.00;100850.91;1039505;28;20300;-81
2023/04/25 00:14:06;;;;;;;17.17;4.57;;;;;;;5.19;100.00;100840.63;1039745;28;20311;-81
2023/04/25 00:14:38;;;;;;;25.02;5.00;;;;;;;5.14;100.00;100847.47;1036109;28;20695;-81
2023/04/25 00:15:10;;;;;;;18.05;5.82;;;;;;;5.06;100.00;100848.38;1032404;28;20320;-81
2023/04/25 00:15:42;;;;;;;14.52;5.20;;;;;;;4.98;100.00;100848.47;1035265;28;20691;-81
2023/04/25 00:16:15;;;;;;;10.18;3.45;;;;;;;5.06;100.00;100842.28;1038529;28;20732;-81
2023/04/25 00:16:48;;;;;;;12.20;4.97;;;;;;;4.95;100.00;100846.19;1036733;28;21946;-81
2023/04/25 00:17:19;;;;;;;17.02;5.10;;;;;;;4.86;100.00;100847.22;1031381;28;20297;-81
2023/04/25 00:17:52;;;;;;;15.43;4.95;;;;;;;4.89;100.00;100841.59;1027589;28;20298;-81
2023/04/25 00:18:24;;;;;;;19.55;4.75;;;;;;;4.85;100.00;100840.31;1025030;28;20401;-81
2023/04/25 00:18:56;;;;;;;14.15;4.85;;;;;;;4.87;100.00;100843.59;1024255;28;20291;-81
2023/04/25 00:19:28;;;;;;;19.95;4.53;;;;;;;4.81;100.00;100853.03;1028703;28;20289;-81
2023/04/25 00:20:00;;;;;;;17.20;5.53;;;;;;;4.75;100.00;100850.31;1034862;28;20296;-81
2023/04/25 00:20:32;;;;;;;12.93;4.78;;;;;;;4.73;100.00;100854.94;1035767;28;20300;-81
2023/04/25 00:21:06;;;;;;;15.65;4.88;;;;;;;4.68;100.00;100846.75;1040156;28;20300;-81
2023/04/25 00:21:40;;;;;;;21.42;5.85;;;;;;;4.66;100.00;100849.56;1042840;28;20299;-81
2023/04/25 00:22:13;;;;;;;12.38;4.32;;;;;;;4.55;100.00;100850.78;1044474;28;20307;-81
2023/04/25 00:22:45;;;;;;;18.23;4.90;;;;;;;4.55;100.00;100861.34;1039032;28;20318;-81
2023/04/25 00:23:20;;;;;;;22.13;5.68;;;;;;;4.51;100.00;100860.03;1037755;28;20308;-81
2023/04/25 00:23:52;;;;;;;17.38;6.05;;;;;;;4.48;100.00;100849.03;1027379;28;20352;-81
2023/04/25 00:24:24;;;;;;;21.42;4.82;;;;;;;4.47;100.00;100853.50;1028307;28;20302;-81
2023/04/25 00:24:57;;;;;;;14.30;5.47;;;;;;;4.52;100.00;100855.59;1027203;28;20302;-81
2023/04/25 00:25:28;;;;;;;19.00;5.68;;;;;;;4.56;100.00;100859.50;1032775;28;20297;-81
2023/04/25 00:26:00;;;;;;;19.77;4.40;;;;;;;4.48;100.00;100863.03;1043104;28;20299;-81
2023/04/25 00:26:35;;;;;;;18.65;5.30;;;;;;;4.49;100.00;100855.94;1037026;28;20304;-80
2023/04/25 00:27:06;;;;;;;11.82;4.05;;;;;;;4.43;100.00;100857.47;1034703;28;20809;-81
2023/04/25 00:27:38;;;;;;;16.55;4.88;;;;;;;4.38;100.00;100851.88;1034514;28;20805;-81
2023/04/25 00:28:11;;;;;;;20.88;5.40;;;;;;;4.34;100.00;100859.31;1033102;28;20399;-81
2023/04/25 00:28:43;;;;;;;18.67;4.40;;;;;;;4.33;100.00;100856.88;1035949;28;20300;-81
2023/04/25 00:29:14;;;;;;;14.30;3.95;;;;;;;4.34;100.00;100853.22;1035473;28;20772;-81
2023/04/25 00:29:46;;;;;;;20.85;5.03;;;;;;;4.35;100.00;100855.69;1031892;28;20357;-81
2023/04/25 00:30:18;;;;;;;19.13;5.53;;;;;;;4.28;100.00;100859.22;1034161;28;20423;-81
2023/04/25 00:30:50;;;;;;;14.80;4.88;;;;;;;4.31;100.00;100859.69;1033410;28;20303;-81
2023/04/25 00:31:21;;;;;;;9.52;4.72;;;;;;;4.27;100.00;100857.56;1029104;28;20302;-81
2023/04/25 00:31:53;;;;;;;14.98;4.47;;;;;;;4.29;100.00;100855.59;1026951;28;20393;-81
2023/04/25 00:32:25;;;;;;;17.17;4.05;;;;;;;4.23;100.00;100858.91;1026564;28;20390;-80
2023/04/25 00:32:56;;;;;;;15.55;5.70;;;;;;;4.22;100.00;100855.47;1033391;28;20297;-81
2023/04/25 00:33:28;;;;;;;20.05;5.50;;;;;;;4.25;100.00;100862.19;1031117;28;20427;-80
2023/04/25 00:34:00;;;;;;;22.17;4.90;;;;;;;4.22;100.00;100860.75;1039225;28;20312;-80
2023/04/25 00:34:31;;;;;;;13.82;3.55;;;;;;;4.28;100.00;100864.50;1040514;28;20299;-80
2023/04/25 00:35:03;;;;;;;14.02;5.93;;;;;;;4.43;100.00;100859.28;1040310;28;20315;-80
2023/04/25 00:35:35;;;;;;;23.75;6.47;;;;;;;4.58;100.00;100860.97;1039246;28;20623;-80
2023/04/25 00:36:07;;;;;;;14.75;4.28;;;;;;;4.55;100.00;100863.16;1029362;28;20298;-80
2023/04/25 00:36:39;;;;;;;23.27;5.40;;;;;;;4.52;100.00;100860.88;1036410;28;20301;-80
2023/04/25 00:37:11;;;;;;;18.73;4.30;;;;;;;4.42;100.00;100862.94;1040234;28;20814;-80
2023/04/25 00:37:43;;;;;;;21.88;4.70;;;;;;;4.34;100.00;100859.31;1031162;28;20301;-81
2023/04/25 00:38:14;;;;;;;17.10;4.18;;;;;;;4.31;100.00;100858.88;1033271;28;20344;-80
2023/04/25 00:38:46;;;;;;;18.23;3.88;;;;;;;4.51;100.00;100854.78;1039322;28;20817;-80
2023/04/25 00:39:18;;;;;;;12.65;4.25;;;;;;;4.59;100.00;100856.53;1039526;28;20315;-81
2023/04/25 00:39:50;;;;;;;13.38;4.07;;;;;;;4.67;100.00;100863.56;1039625;28;20300;-80
2023/04/25 00:40:22;;;;;;;17.50;5.45;;;;;;;4.54;100.00;100857.06;1030987;28;20305;-80
2023/04/25 00:40:55;;;;;;;17.55;4.45;;;;;;;4.59;100.00;100859.16;1033928;28;20316;-80
2023/04/25 00:41:27;;;;;;;24.85;5.50;;;;;;;4.63;100.00;100858.63;1035608;28;20346;-80
2023/04/25 00:41:59;;;;;;;14.65;3.92;;;;;;;4.55;100.00;100856.06;1031158;28;20301;-80
2023/04/25 00:42:31;;;;;;;18.80;4.78;;;;;;;4.62;100.00;100862.25;1039136;28;20351;-80
2023/04/25 00:43:04;;;;;;;11.23;3.75;;;;;;;4.57;100.00;100858.50;1034971;28;20813;-81
2023/04/25 00:43:36;;;;;;;14.55;3.78;;;;;;;4.53;100.00;100852.78;1036022;28;20307;-80
2023/04/25 00:44:11;;;;;;;11.75;4.35;;;;;;;4.43;100.00;100857.47;1034400;28;20304;-81
2023/04/25 00:44:43;;;;;;;11.07;4.13;;;;;;;4.37;100.00;100858.16;1039765;28;20311;-80
2023/04/25 00:45:15;;;;;;;13.05;4.13;;;;;;;4.33;100.00;100856.88;1043361;28;20797;-81
2023/04/25 00:45:47;;;;;;;11.68;4.35;;;;;;;4.33;100.00;100852.41;1035435;28;20359;-80
2023/04/25 00:46:18;;;;;;;18.48;4.35;;;;;;;4.30;100.00;100857.22;1034670;28;20778;-81
2023/04/25 00:46:50;;;;;;;11.07;3.50;;;;;;;4.28;100.00;100859.22;1027040;28;20363;-80
2023/04/25 00:47:22;;;;;;;11.82;4.25;;;;;;;4.28;100.00;100854.75;1036095;28;20285;-81
2023/04/25 00:47:54;;;;;;;17.65;4.38;;;;;;;4.31;100.00;100853.59;1037093;28;20307;-81
2023/04/25 00:48:26;;;;;;;21.15;4.72;;;;;;;4.29;100.00;100855.59;1039603;28;20299;-81
2023/04/25 00:48:57;;;;;;;14.88;4.20;;;;;;;4.20;100.00;100856.63;1031371;28;20344;-81
2023/04/25 00:49:29;;;;;;;24.85;5.20;;;;;;;4.19;100.00;100860.28;1043250;28;20661;-81
2023/04/25 00:50:00;;;;;;;12.85;3.78;;;;;;;4.18;100.00;100861.25;1036196;28;20432;-80
2023/04/25 00:50:33;;;;;;;11.05;3.30;;;;;;;4.23;100.00;100858.91;1034939;28;20300;-80
2023/04/25 00:51:06;;;;;;;11.48;3.35;;;;;;;4.24;100.00;100857.94;1031390;28;20301;-81
2023/04/25 00:51:38;;;;;;;8.50;3.22;;;;;;;4.25;100.00;100864.84;1027686;28;20456;-81
2023/04/25 00:52:10;;;;;;;15.45;5.03;;;;;;;4.22;100.00;100865.19;1030870;28;20356;-81
2023/04/25 00:52:43;;;;;;;13.52;4.28;;;;;;;4.18;100.00;100861.25;1031518;28;20306;-81
2023/04/25 00:53:15;;;;;;;16.33;3.78;;;;;;;4.18;100.00;100859.44;1027237;28;20309;-81
2023/04/25 00:53:48;;;;;;;19.20;4.40;;;;;;;4.42;100.00;100855.00;1038748;28;20355;-81
2023/04/25 00:54:20;;;;;;;14.05;4.60;;;;;;;4.50;100.00;100862.88;1032238;28;20309;-81
2023/04/25 00:54:52;;;;;;;15.57;4.03;;;;;;;4.43;100.00;100861.94;1027155;28;20325;-80
2023/04/25 00:55:24;;;;;;;17.50;4.47;;;;;;;4.45;100.00;100860.75;1035898;28;20307;-81
2023/04/25 00:55:55;;;;;;;17.38;3.70;;;;;;;4.51;100.00;100856.59;1031735;28;20305;-81
2023/04/25 00:56:27;;;;;;;14.38;4.38;;;;;;;4.56;100.00;100868.25;1031363;28;20305;-81
2023/04/25 00:57:00;;;;;;;14.57;4.07;;;;;;;4.67;100.00;100860.94;1037043;28;20293;-81
2023/04/25 00:57:32;;;;;;;14.73;3.72;;;;;;;4.63;100.00;100858.63;1036426;28;20674;-81
2023/04/25 00:58:03;;;;;;;15.35;5.00;;;;;;;4.60;100.00;100853.69;1043458;28;20551;-81
2023/04/25 00:58:36;;;;;;;16.92;4.28;;;;;;;4.58;100.00;100862.78;1040599;28;20303;-81
2023/04/25 00:59:09;;;;;;;11.70;4.55;;;;;;;4.55;100.00;100861.34;1032127;28;20297;-81
2023/04/25 00:59:43;;;;;;;17.23;3.78;;;;;;;4.53;100.00;100851.97;1028495;28;20310;-81
2023/04/25 01:00:15;;;;;;;12.70;3.83;;;;;;;4.53;100.00;100857.22;1037360;28;20312;-80
2023/04/25 01:00:50;;;;;;;13.35;5.22;;;;;;;4.54;100.00;100856.22;1044992;28;20295;-81
2023/04/25 01:01:22;;;;;;;9.80;4.13;;;;;;;4.57;100.00;100858.50;1041129;28;20280;-81
2023/04/25 01:01:54;;;;;;;15.80;4.88;;;;;;;4.57;100.00;100854.06;1040825;28;20384;-81
2023/04/25 01:02:26;;;;;;;23.63;4.43;;;;;;;4.64;100.00;100862.09;1028147;28;20703;-81
2023/04/25 01:02:58;;;;;;;14.10;4.40;;;;;;;4.63;100.00;100861.25;1030180;28;20308;-80
2023/04/25 01:03:32;;;;;;;10.55;3.95;;;;;;;4.64;100.00;100857.63;1031750;28;20814;-81
2023/04/25 01:04:04;;;;;;;12.80;3.67;;;;;;;4.70;100.00;100860.56;1027936;28;20309;-80
2023/04/25 01:04:36;;;;;;;14.75;3.70;;;;;;;4.71;100.00;100859.59;1035016;28;20337;-81
2023/04/25 01:05:11;;;;;;;17.63;4.97;;;;;;;4.76;100.00;100867.78;1034547;28;20297;-81
2023/04/25 01:05:43;;;;;;;19.48;4.32;;;;;;;4.73;100.00;100861.03;1035420;28;20882;-81
2023/04/25 01:06:16;;;;;;;10.55;4.80;;;;;;;4.75;100.00;100855.59;1033764;28;20305;-80
2023/04/25 01:06:48;;;;;;;11.38;3.88;;;;;;;4.74;100.00;100859.22;1033805;28;20293;-80
2023/04/25 01:07:20;;;;;;;14.85;3.90;;;;;;;4.80;100.00;100861.16;1030102;28;20304;-81
2023/04/25 01:07:51;;;;;;;11.55;4.25;;;;;;;4.77;100.00;100862.31;1035201;28;20805;-81
2023/04/25 01:08:27;;;;;;;9.82;3.58;;;;;;;4.79;100.00;100868.25;1034999;28;20374;-81
2023/04/25 01:08:59;;;;;;;12.13;4.22;;;;;;;4.78;100.00;100871.06;1036384;28;20304;-81
2023/04/25 01:09:33;;;;;;;13.70;5.05;;;;;;;4.81;100.00;100866.25;1038857;28;20773;-80
2023/04/25 01:10:06;;;;;;;16.77;4.68;;;;;;;4.75;100.00;100866.13;1034111;28;20684;-81
2023/04/25 01:10:37;;;;;;;9.57;3.95;;;;;;;4.82;100.00;100862.59;1036642;28;20794;-81
2023/04/25 01:11:09;;;;;;;17.38;4.60;;;;;;;5.10;100.00;100865.47;1033485;28;20799;-81
2023/04/25 01:11:40;;;;;;;15.95;3.85;;;;;;;5.06;100.00;100866.84;1035192;28;20308;-80
2023/04/25 01:12:12;;;;;;;29.38;4.53;;;;;;;5.04;100.00;100873.31;1031811;28;20834;-80
2023/04/25 01:12:44;;;;;;;20.20;4.63;;;;;;;5.00;100.00;100870.22;1031391;28;20309;-80
2023/04/25 01:13:15;;;;;;;11.15;4.60;;;;;;;5.06;100.00;100877.41;1033480;28;20303;-80
2023/04/25 01:13:47;;;;;;;17.92;4.53;;;;;;;5.19;100.00;100869.69;1035042;28;20383;-80
2023/04/25 01:14:19;;;;;;;10.85;3.97;;;;;;;5.24;100.00;100883.19;1035430;28;20350;-81
2023/04/25 01:14:51;;;;;;;11.20;4.90;;;;;;;5.12;100.00;100874.03;1033002;28;20730;-80
2023/04/25 01:15:23;;;;;;;9.95;3.83;;;;;;;5.24;100.00;100872.63;1030499;28;20301;-81
2023/04/25 01:15:54;;;;;;;21.52;4.75;;;;;;;5.28;100.00;100878.34;1029028;28;20736;-81
2023/04/25 01:16:26;;;;;;;15.30;4.70;;;;;;;5.19;100.00;100877.59;1032983;28;20301;-81
2023/04/25 01:16:58;;;;;;;17.00;4.78;;;;;;;5.24;100.00;100877.91;1039585;28;20788;-81
2023/04/25 01:17:31;;;;;;;17.75;5.38;;;;;;;5.30;100.00;100872.91;1039078;28;20314;-81
2023/04/25 01:18:05;;;;;;;18.35;4.32;;;;;;;5.42;100.00;100876.72;1035407;28;20320;-81
2023/04/25 01:18:39;;;;;;;15.43;5.10;;;;;;;5.39;100.00;100879.72;1027731;28;20793;-80
2023/04/25 01:19:13;;;;;;;21.25;6.05;;;;;;;5.38;100.00;100881.53;1032679;28;20800;-81
2023/04/25 01:19:48;;;;;;;18.08;4.82;;;;;;;5.35;100.00;100884.56;1034975;28;20305;-81
2023/04/25 01:20:22;;;;;;;17.10;4.75;;;;;;;5.25;100.00;100876.91;1038832;28;20312;-81
2023/04/25 01:20:55;;;;;;;19.65;5.22;;;;;;;5.27;100.00;100880.19;1037055;28;20305;-80
2023/04/25 01:21:27;;;;;;;20.27;5.00;;;;;;;5.35;100.00;100878.44;1036690;28;20322;-80
2023/04/25 01:21:59;;;;;;;26.17;6.65;;;;;;;5.17;100.00;100876.97;1036048;28;20307;-80
2023/04/25 01:22:32;;;;;;;13.27;5.25;;;;;;;5.27;100.00;100882.00;1039989;28;20303;-80
2023/04/25 01:23:04;;;;;;;18.30;5.38;;;;;;;5.35;100.00;100875.81;1040144;28;20826;-80
2023/04/25 01:23:36;;;;;;;10.25;4.85;;;;;;;5.26;100.00;100881.19;1039106;28;20304;-80
2023/04/25 01:24:08;;;;;;;26.77;5.55;;;;;;;5.30;100.00;100884.28;1030365;28;20308;-80
2023/04/25 01:24:40;;;;;;;14.18;7.18;;;;;;;5.21;100.00;100878.25;1035132;28;20799;-80
2023/04/25 01:25:12;;;;;;;21.60;5.95;;;;;;;5.32;100.00;100878.81;1033134;28;20301;-80
2023/04/25 01:25:44;;;;;;;29.63;6.35;;;;;;;5.35;100.00;100878.44;1027448;28;20725;-80
2023/04/25 01:26:16;;;;;;;22.65;6.28;;;;;;;5.31;100.00;100874.53;1037824;28;20315;-80
2023/04/25 01:26:51;;;;;;;15.55;5.18;;;;;;;5.46;100.00;100880.63;1035438;28;20799;-80
2023/04/25 01:27:28;;;;;;;20.30;5.28;;;;;;;5.53;100.00;100882.38;1039283;28;20308;-80
2023/04/25 01:27:59;;;;;;;17.65;5.20;;;;;;;5.46;100.00;100875.34;1034677;28;20289;-80
2023/04/25 01:28:33;;;;;;;24.02;5.88;;;;;;;5.25;100.00;100876.91;1026866;28;20313;-80
2023/04/25 01:29:06;;;;;;;25.77;6.50;;;;;;;5.36;100.00;100877.44;1027496;28;20310;-80
2023/04/25 01:29:39;;;;;;;15.77;5.63;;;;;;;5.51;100.00;100883.56;1028264;28;20676;-80
2023/04/25 01:30:11;;;;;;;17.45;6.00;;;;;;;5.45;100.00;100873.72;1032185;28;20788;-80
2023/04/25 01:30:43;;;;;;;24.38;8.52;;;;;;;5.51;100.00;100880.94;1033212;28;20320;-80
2023/04/25 01:31:16;;;;;;;19.08;5.80;;;;;;;5.44;100.00;100872.06;1038510;28;20512;-80
2023/04/25 01:31:48;;;;;;;15.40;5.68;;;;;;;5.43;100.00;100875.72;1035350;28;20674;-80
2023/04/25 01:32:22;;;;;;;20.67;5.45;;;;;;;5.42;100.00;100869.59;1039245;28;20303;-80
2023/04/25 01:32:55;;;;;;;16.10;4.93;;;;;;;5.47;100.00;100874.34;1033982;28;20320;-80
2023/04/25 01:33:27;;;;;;;14.40;4.28;;;;;;;5.38;100.00;100883.38;1031206;28;20788;-80
2023/04/25 01:34:00;;;;;;;12.70;5.13;;;;;;;5.37;100.00;100876.44;1032312;28;20417;-80
2023/04/25 01:34:33;;;;;;;16.98;5.78;;;;;;;5.41;100.00;100873.25;1026898;28;20310;-80
2023/04/25 01:35:09;;;;;;;14.30;6.00;;;;;;;5.46;100.00;100872.69;1035273;28;20300;-81
2023/04/25 01:35:41;;;;;;;26.35;5.75;;;;;;;5.41;100.00;100878.53;1035029;28;20297;-80
2023/04/25 01:36:14;;;;;;;11.23;4.75;;;;;;;5.41;100.00;100883.00;1036617;28;20790;-80
2023/04/25 01:36:49;;;;;;;16.13;4.95;;;;;;;5.51;100.00;100883.56;1032538;28;20673;-80
2023/04/25 01:37:20;;;;;;;17.27;5.05;;;;;;;5.45;100.00;100879.81;1027427;28;20797;-80
2023/04/25 01:37:52;;;;;;;22.17;5.45;;;;;;;5.42;100.00;100884.63;1031353;28;20316;-80
2023/04/25 01:38:23;;;;;;;14.60;4.80;;;;;;;5.40;100.00;100881.38;1036035;28;20809;-80
2023/04/25 01:38:55;;;;;;;15.55;4.72;;;;;;;5.40;100.00;100876.91;1034703;28;20301;-80
2023/04/25 01:39:29;;;;;;;10.05;4.82;;;;;;;5.41;100.00;100883.00;1027674;28;20824;-80
2023/04/25 01:40:01;;;;;;;11.30;4.18;;;;;;;5.40;100.00;100876.06;1030280;28;20312;-80
2023/04/25 01:40:34;;;;;;;14.23;5.13;;;;;;;5.43;100.00;100886.28;1028510;28;20302;-80
2023/04/25 01:41:06;;;;;;;17.55;5.97;;;;;;;5.37;100.00;100881.72;1032430;28;20307;-80
2023/04/25 01:41:37;;;;;;;19.38;5.25;;;;;;;5.37;100.00;100887.81;1039353;28;20378;-80
2023/04/25 01:42:09;;;;;;;11.43;4.00;;;;;;;5.41;100.00;100888.28;1036681;28;20795;-80
2023/04/25 01:42:43;;;;;;;16.88;3.92;;;;;;;5.39;100.00;100891.09;1039713;28;20295;-80
2023/04/25 01:43:15;;;;;;;22.50;5.68;;;;;;;5.34;100.00;100882.91;1029152;28;20851;-80
2023/04/25 01:43:46;;;;;;;25.25;4.97;;;;;;;5.30;100.00;100886.09;1030390;28;20298;-80
2023/04/25 01:44:18;;;;;;;17.42;4.82;;;;;;;5.37;100.00;100879.91;1032732;28;20301;-80
2023/04/25 01:44:50;;;;;;;15.75;4.93;;;;;;;5.37;100.00;100889.66;1035915;28;20304;-80
2023/04/25 01:45:22;;;;;;;15.65;5.13;;;;;;;5.36;100.00;100888.00;1032226;28;20840;-80
2023/04/25 01:45:56;;;;;;;18.45;5.03;;;;;;;5.36;100.00;100890.66;1040360;28;20822;-80
2023/04/25 01:46:29;;;;;;;14.52;4.60;;;;;;;5.40;100.00;100887.47;1040994;28;20304;-80
2023/04/25 01:47:00;;;;;;;15.85;5.40;;;;;;;5.36;100.00;100890.66;1037824;28;20303;-80
2023/04/25 01:47:34;;;;;;;17.23;4.60;;;;;;;5.38;100.00;100893.94;1035033;28;20388;-80
2023/04/25 01:48:10;;;;;;;17.92;4.85;;;;;;;5.36;100.00;100885.38;1034027;28;20292;-80
2023/04/25 01:48:42;;;;;;;13.05;3.95;;;;;;;5.34;100.00;100888.19;1031483;28;20321;-80
2023/04/25 01:49:14;;;;;;;18.52;5.40;;;;;;;5.35;100.00;100889.84;1028956;28;20302;-80
2023/04/25 01:49:47;;;;;;;21.15;5.90;;;;;;;5.33;100.00;100888.38;1038780;28;20366;-80
2023/04/25 01:50:20;;;;;;;14.77;4.78;;;;;;;5.38;100.00;100883.38;1038654;28;20308;-81
2023/04/25 01:50:52;;;;;;;17.08;4.47;;;;;;;5.39;100.00;100885.00;1039757;28;20308;-80
2023/04/25 01:51:24;;;;;;;15.20;4.40;;;;;;;5.40;100.00;100890.09;1031733;28;20313;-80
2023/04/25 01:51:55;;;;;;;12.90;3.88;;;;;;;5.39;100.00;100891.09;1035936;28;20308;-80
2023/04/25 01:52:27;;;;;;;18.85;4.70;;;;;;;5.35;100.00;100891.66;1035287;28;20395;-79
2023/04/25 01:52:59;;;;;;;20.30;5.15;;;;;;;5.32;100.00;100886.75;1029007;28;20298;-80
2023/04/25 01:53:30;;;;;;;13.35;4.20;;;;;;;5.34;100.00;100882.09;1039950;28;20374;-80
2023/04/25 01:54:03;;;;;;;13.30;4.35;;;;;;;5.30;100.00;100886.09;1037842;28;20312;-80
2023/04/25 01:54:35;;;;;;;16.27;4.40;;;;;;;5.35;100.00;100884.56;1039426;28;20359;-80
2023/04/25 01:55:07;;;;;;;20.25;4.97;;;;;;;5.31;100.00;100888.56;1026446;28;20327;-80
2023/04/25 01:55:41;;;;;;;19.27;5.80;;;;;;;5.32;100.00;100884.09;1036121;28;20309;-80
2023/04/25 01:56:17;;;;;;;13.07;5.25;;;;;;;5.34;100.00;100888.19;1035936;28;20308;-80
2023/04/25 01:56:52;;;;;;;13.98;4.28;;;;;;;5.36;100.00;100880.91;1038943;28;20963;-80
2023/04/25 01:57:25;;;;;;;9.75;3.70;;;;;;;5.37;100.00;100887.00;1027571;28;20306;-80
2023/04/25 01:57:59;;;;;;;11.02;5.00;;;;;;;5.33;100.00;100889.19;1038569;28;20301;-80
2023/04/25 01:58:45;;;;;;;10.50;4.18;;;;;;;5.43;100.00;100891.56;1033519;28;20820;-80
2023/04/25 01:59:45;;;;;;;10.07;3.63;;;;;;;5.49;100.00;100896.16;1040491;28;20330;-80
2023/04/25 02:00:42;;;;;;;14.73;5.10;;;;;;;5.51;100.00;100886.22;1035275;28;20327;-80
2023/04/25 02:01:14;;;;;;;11.20;4.88;;;;;;;5.48;100.00;100886.56;1038977;28;20307;-80
2023/04/25 02:01:53;;;;;;;13.18;3.92;;;;;;;5.44;100.00;100894.03;1035755;28;20321;-80
2023/04/25 02:02:32;;;;;;;10.07;3.00;;;;;;;5.53;100.00;100892.13;1034001;28;20308;-80
2023/04/25 02:03:04;;;;;;;15.88;4.28;;;;;;;5.44;100.00;100899.31;1039703;28;20295;-80
2023/04/25 02:03:37;;;;;;;9.93;4.50;;;;;;;5.43;100.00;100895.03;1041350;28;20308;-80
2023/04/25 02:04:14;;;;;;;12.98;3.72;;;;;;;5.39;100.00;100900.84;1035753;28;20698;-81
2023/04/25 02:04:46;;;;;;;8.88;3.17;;;;;;;5.43;100.00;100899.47;1029031;28;20304;-81
2023/04/25 02:05:20;;;;;;;8.77;3.45;;;;;;;5.44;100.00;100893.19;1027951;28;20309;-81
2023/04/25 02:05:52;;;;;;;13.52;3.47;;;;;;;5.44;100.00;100890.56;1035015;28;20671;-81
2023/04/25 02:06:24;;;;;;;11.20;4.30;;;;;;;5.42;100.00;100892.56;1039775;28;20327;-81
2023/04/25 02:06:58;;;;;;;14.82;5.55;;;;;;;5.35;100.00;100899.56;1031700;28;20313;-80
2023/04/25 02:07:37;;;;;;;8.70;4.32;;;;;;;5.24;100.00;100901.66;1031556;28;20320;-81
2023/04/25 02:08:09;;;;;;;17.92;3.97;;;;;;;5.30;100.00;100901.94;1033643;28;20297;-81
2023/04/25 02:08:42;;;;;;;9.80;4.63;;;;;;;5.26;100.00;100897.03;1033524;28;20311;-80
2023/04/25 02:09:15;;;;;;;11.60;4.07;;;;;;;5.30;100.00;100897.47;1033768;28;20311;-80
2023/04/25 02:09:52;;;;;;;8.85;3.33;;;;;;;5.27;100.00;100903.94;1031520;28;20348;-81
2023/04/25 02:10:26;;;;;;;15.65;4.32;;;;;;;5.22;100.00;100908.94;1035886;28;20316;-81
2023/04/25 02:11:17;;;;;;;12.60;5.30;;;;;;;5.22;100.00;100903.66;1033927;28;20329;-81
2023/04/25 02:11:58;;;;;;;6.97;2.83;;;;;;;5.31;100.00;100904.41;1044275;28;20295;-81
2023/04/25 02:12:47;;;;;;;15.63;4.57;;;;;;;5.32;100.00;100910.50;1034173;28;20731;-80
2023/04/25 02:13:27;;;;;;;13.32;3.40;;;;;;;5.25;100.00;100905.13;1038388;28;20359;-81
2023/04/25 02:13:58;;;;;;;11.80;3.70;;;;;;;5.31;100.00;100906.22;1031516;28;20306;-81
2023/04/25 02:14:47;;;;;;;12.25;3.17;;;;;;;5.31;100.00;100903.59;1030190;28;20301;-81
2023/04/25 02:15:23;;;;;;;14.50;3.90;;;;;;;5.19;100.00;100906.66;1033094;28;20762;-81
2023/04/25 02:15:58;;;;;;;15.65;4.85;;;;;;;5.21;100.00;100907.31;1034350;28;20439;-81
2023/04/25 02:16:30;;;;;;;9.38;2.85;;;;;;;5.19;100.00;100911.94;1030034;28;20301;-80
2023/04/25 02:17:05;;;;;;;10.93;3.20;;;;;;;5.22;100.00;100908.94;1027650;28;20692;-81
2023/04/25 02:17:37;;;;;;;15.77;4.05;;;;;;;5.18;100.00;100905.00;1027769;28;20298;-81
2023/04/25 02:18:10;;;;;;;12.55;3.50;;;;;;;5.22;100.00;100906.31;1027225;28;20381;-81
2023/04/25 02:18:42;;;;;;;9.90;3.97;;;;;;;5.15;100.00;100909.81;1033130;28;20386;-82
2023/04/25 02:19:14;;;;;;;9.02;3.08;;;;;;;5.12;100.00;100913.66;1036162;28;20484;-81
2023/04/25 02:19:45;;;;;;;9.10;3.03;;;;;;;5.13;100.00;100917.09;1039859;28;20632;-81
2023/04/25 02:20:17;;;;;;;9.05;4.65;;;;;;;5.23;100.00;100913.22;1034193;28;20304;-81
2023/04/25 02:20:49;;;;;;;15.25;3.88;;;;;;;5.20;100.00;100908.31;1024176;28;20703;-81
2023/04/25 02:21:21;;;;;;;13.32;3.95;;;;;;;5.23;100.00;100917.69;1023666;28;20299;-81
2023/04/25 02:21:52;;;;;;;8.35;3.47;;;;;;;5.23;100.00;100912.41;1038989;28;20677;-81
2023/04/25 02:22:24;;;;;;;10.50;4.03;;;;;;;5.23;100.00;100913.22;1041300;28;20306;-81
2023/04/25 02:22:55;;;;;;;19.05;5.30;;;;;;;5.19;100.00;100913.75;1031735;28;20316;-81
2023/04/25 02:23:28;;;;;;;13.55;3.08;;;;;;;5.20;100.00;100913.59;1033348;28;20297;-81
2023/04/25 02:23:59;;;;;;;11.82;4.30;;;;;;;5.24;100.00;100914.06;1032121;28;20392;-81
2023/04/25 02:24:33;;;;;;;15.00;4.05;;;;;;;5.23;100.00;100912.41;1029255;28;20314;-81
2023/04/25 02:25:06;;;;;;;10.95;4.40;;;;;;;5.23;100.00;100915.88;1033029;28;20313;-81
2023/04/25 02:25:37;;;;;;;15.68;4.03;;;;;;;5.21;100.00;100924.97;1038853;28;20415;-81
2023/04/25 02:26:11;;;;;;;12.75;3.70;;;;;;;5.17;100.00;100927.13;1035417;28;20309;-81
2023/04/25 02:26:43;;;;;;;12.77;3.45;;;;;;;5.18;100.00;100926.13;1039887;28;20694;-81
2023/04/25 02:27:14;;;;;;;17.02;4.32;;;;;;;5.22;100.00;100922.16;1033050;28;20312;-81
2023/04/25 02:27:47;;;;;;;15.15;3.63;;;;;;;5.26;100.00;100923.44;1035176;28;20304;-81
2023/04/25 02:28:18;;;;;;;17.00;7.18;;;;;;;5.31;100.00;100924.72;1025849;28;20299;-81
2023/04/25 02:28:50;;;;;;;13.25;3.78;;;;;;;5.31;100.00;100914.16;1036332;28;20293;-81
2023/04/25 02:29:23;;;;;;;6.18;3.40;;;;;;;5.27;100.00;100919.78;1041304;28;20303;-81
2023/04/25 02:29:55;;;;;;;11.07;4.35;;;;;;;5.33;100.00;100923.53;1044396;28;20295;-80
2023/04/25 02:30:26;;;;;;;19.90;4.25;;;;;;;5.35;100.00;100921.53;1035197;28;20303;-81
2023/04/25 02:30:58;;;;;;;14.32;4.10;;;;;;;5.40;100.00;100920.97;1034745;28;20296;-80
2023/04/25 02:31:29;;;;;;;8.63;3.90;;;;;;;5.30;100.00;100925.72;1031760;28;20351;-80